Time;durP1;ratioP1;P1;durP2;ratioP2;P2;SDS_P1;SDS_P2;PMS_P1;PMS_P2;Temp;Humidity;BMP_temperature;BMP_pressure;BME280_temperature;BME280_humidity;BME280_pressure;Samples;Min_cycle;Max_cycle;Signal;HPM_P1;HPM_P2
2022/08/16 00:00:45;;;;;;;19.47;15.23;;;22.20;99.90;;;;;;4920861;29;20631;-70
2022/08/16 00:03:12;;;;;;;24.23;15.83;;;22.20;99.90;;;;;;4903268;29;20199;-71
2022/08/16 00:05:42;;;;;;;21.60;14.90;;;22.10;99.90;;;;;;4919554;29;20199;-69
2022/08/16 00:08:15;;;;;;;20.97;15.03;;;22.10;99.90;;;;;;4919408;29;20207;-83
2022/08/16 00:11:05;;;;;;;17.03;14.83;;;22.10;99.90;;;;;;4919355;29;20731;-78
2022/08/16 00:13:32;;;;;;;18.97;15.30;;;22.10;99.90;;;;;;4919403;29;20219;-80
2022/08/16 00:16:09;;;;;;;22.07;15.10;;;22.10;99.90;;;;;;4919001;29;20249;-77
2022/08/16 00:18:57;;;;;;;21.23;15.47;;;22.00;99.90;;;;;;4919111;29;20199;-79
2022/08/16 00:21:25;;;;;;;19.73;14.63;;;22.00;99.90;;;;;;4918127;29;20199;-81
2022/08/16 00:23:55;;;;;;;21.70;16.00;;;22.00;99.90;;;;;;4935687;29;20202;-83
2022/08/16 00:26:22;;;;;;;23.23;15.60;;;22.00;99.90;;;;;;4901753;29;20286;-84
2022/08/16 00:29:14;;;;;;;23.70;14.80;;;21.90;99.90;;;;;;4919158;29;20245;-82
2022/08/16 00:31:44;;;;;;;21.00;14.53;;;21.90;99.90;;;;;;4919107;29;20206;-70
2022/08/16 00:34:31;;;;;;;22.57;15.50;;;21.90;99.90;;;;;;4917695;29;20214;-69
2022/08/16 00:37:12;;;;;;;22.10;15.67;;;21.80;99.90;;;;;;4932953;29;20525;-69
2022/08/16 00:39:46;;;;;;;21.47;15.80;;;21.80;99.90;;;;;;4918751;29;20234;-69
2022/08/16 00:42:23;;;;;;;18.53;14.27;;;21.90;99.90;;;;;;4915889;29;20199;-68
2022/08/16 00:45:06;;;;;;;19.37;14.93;;;21.80;99.90;;;;;;4918364;29;20687;-69
2022/08/16 00:47:43;;;;;;;20.70;14.90;;;21.80;99.90;;;;;;4919019;29;20204;-70
2022/08/16 00:50:19;;;;;;;23.07;15.57;;;21.80;99.90;;;;;;4911235;29;20240;-69
2022/08/16 00:52:46;;;;;;;21.87;15.33;;;21.80;99.90;;;;;;4934944;29;20231;-69
2022/08/16 00:55:20;;;;;;;20.93;15.50;;;21.80;99.90;;;;;;4918532;29;20230;-69
2022/08/16 00:57:49;;;;;;;18.00;14.70;;;21.80;99.90;;;;;;4919064;29;20203;-69
2022/08/16 01:00:28;;;;;;;22.00;15.03;;;21.70;99.90;;;;;;4918456;29;20206;-81
2022/08/16 01:02:59;;;;;;;18.93;15.70;;;21.70;99.90;;;;;;4935180;29;20623;-72
2022/08/16 01:05:28;;;;;;;20.07;15.30;;;21.70;99.90;;;;;;4935695;29;20578;-72
2022/08/16 01:07:56;;;;;;;32.40;16.27;;;21.70;99.90;;;;;;4914648;29;20604;-71
2022/08/16 01:10:29;;;;;;;18.90;14.60;;;21.70;99.90;;;;;;4918151;29;20258;-71
2022/08/16 01:13:05;;;;;;;19.00;14.77;;;21.60;99.90;;;;;;4935340;29;20591;-72
2022/08/16 01:15:34;;;;;;;22.33;15.07;;;21.60;99.90;;;;;;4921660;29;20249;-72
2022/08/16 01:18:05;;;;;;;20.43;14.13;;;21.60;99.90;;;;;;4918335;29;20642;-72
2022/08/16 01:20:42;;;;;;;19.27;14.60;;;21.60;99.90;;;;;;4918400;29;20194;-73
2022/08/16 01:23:28;;;;;;;20.43;14.50;;;21.60;99.90;;;;;;4935286;29;20199;-71
2022/08/16 01:26:16;;;;;;;19.00;14.90;;;21.60;99.90;;;;;;4931615;29;20201;-70
2022/08/16 01:29:15;;;;;;;19.10;14.30;;;21.60;99.90;;;;;;4908946;29;20254;-74
2022/08/16 01:31:43;;;;;;;18.53;14.50;;;21.50;99.90;;;;;;4918369;29;20242;-69
2022/08/16 01:34:13;;;;;;;18.83;14.70;;;21.50;99.90;;;;;;4920979;29;20306;-69
2022/08/16 01:37:05;;;;;;;22.63;14.57;;;21.50;99.90;;;;;;4921898;29;20198;-70
2022/08/16 01:39:35;;;;;;;21.47;14.67;;;21.50;99.90;;;;;;4921806;29;20194;-71
2022/08/16 01:42:06;;;;;;;21.50;15.10;;;21.50;99.90;;;;;;4922114;29;20199;-72
2022/08/16 01:44:40;;;;;;;19.57;14.43;;;21.40;99.90;;;;;;4932106;29;20194;-70
2022/08/16 01:47:08;;;;;;;19.40;13.47;;;21.40;99.90;;;;;;4925585;29;20266;-71
2022/08/16 01:49:41;;;;;;;20.13;14.73;;;21.40;99.90;;;;;;4938452;29;20669;-75
2022/08/16 01:52:28;;;;;;;22.13;14.90;;;21.40;99.90;;;;;;4921184;29;20227;-69
2022/08/16 01:54:57;;;;;;;22.20;14.10;;;21.40;99.90;;;;;;4921468;29;20206;-69
2022/08/16 01:57:30;;;;;;;20.63;14.17;;;21.40;99.90;;;;;;4921384;29;20222;-68
2022/08/16 02:00:04;;;;;;;44.93;16.87;;;21.40;99.90;;;;;;4921285;29;20219;-70
2022/08/16 02:02:36;;;;;;;18.47;14.43;;;21.40;99.90;;;;;;4938394;29;20615;-69
2022/08/16 02:05:09;;;;;;;20.07;14.13;;;21.40;99.90;;;;;;4921713;29;20680;-70
2022/08/16 02:07:37;;;;;;;21.87;14.37;;;21.30;99.90;;;;;;4937650;29;20195;-70
2022/08/16 02:10:10;;;;;;;18.90;13.17;;;21.30;99.90;;;;;;4921242;29;20211;-70
2022/08/16 02:12:37;;;;;;;19.07;14.00;;;21.30;99.90;;;;;;4929925;29;20203;-72
2022/08/16 02:15:22;;;;;;;17.20;13.87;;;21.30;99.90;;;;;;4915631;29;20249;-71
2022/08/16 02:17:53;;;;;;;17.53;13.83;;;21.30;99.90;;;;;;4921893;29;20206;-71
2022/08/16 02:20:21;;;;;;;16.90;14.07;;;21.20;99.90;;;;;;4921658;29;20227;-71
2022/08/16 02:22:52;;;;;;;19.57;14.00;;;21.20;99.90;;;;;;4921510;29;20673;-71
2022/08/16 02:25:21;;;;;;;18.60;13.83;;;21.20;99.90;;;;;;4920874;29;20663;-71
2022/08/16 02:27:49;;;;;;;22.20;14.03;;;21.20;99.90;;;;;;4921151;29;20684;-72
2022/08/16 02:30:22;;;;;;;19.53;14.40;;;21.20;99.90;;;;;;4921410;29;20246;-70
2022/08/16 02:33:09;;;;;;;19.33;14.10;;;21.20;99.90;;;;;;4938482;29;20230;-71
2022/08/16 02:35:36;;;;;;;43.50;18.37;;;21.20;99.90;;;;;;4921231;29;20222;-72
2022/08/16 02:38:20;;;;;;;19.23;14.00;;;21.20;99.90;;;;;;4920993;29;20749;-70
2022/08/16 02:40:47;;;;;;;18.63;14.37;;;21.20;99.90;;;;;;4921083;29;20289;-70
2022/08/16 02:43:15;;;;;;;22.53;14.63;;;21.10;99.90;;;;;;4920910;29;20201;-70
2022/08/16 02:45:42;;;;;;;18.83;14.57;;;21.10;99.90;;;;;;4903765;29;20194;-70
2022/08/16 02:48:09;;;;;;;19.97;14.07;;;21.10;99.90;;;;;;4938063;29;20234;-70
2022/08/16 02:50:58;;;;;;;19.30;14.50;;;21.10;99.90;;;;;;4921015;29;20222;-71
2022/08/16 02:53:43;;;;;;;18.63;14.77;;;21.00;99.90;;;;;;4906865;29;20224;-72
2022/08/16 02:56:12;;;;;;;17.87;14.03;;;21.00;99.90;;;;;;4898864;29;20230;-70
2022/08/16 02:58:41;;;;;;;19.07;14.63;;;21.00;99.90;;;;;;4898795;29;20718;-74
2022/08/16 03:01:10;;;;;;;19.37;14.30;;;21.00;99.90;;;;;;4899223;29;20200;-72
2022/08/16 03:03:55;;;;;;;17.47;14.03;;;20.90;99.90;;;;;;4899005;29;20215;-71
2022/08/16 03:06:41;;;;;;;20.27;14.13;;;20.90;99.90;;;;;;4898577;29;20224;-74
2022/08/16 03:09:09;;;;;;;17.80;14.20;;;20.90;99.90;;;;;;4899763;29;20232;-79
2022/08/16 03:11:42;;;;;;;20.50;14.27;;;20.90;99.90;;;;;;4898391;29;20287;-73
2022/08/16 03:14:10;;;;;;;18.50;14.20;;;20.90;99.90;;;;;;4900267;29;20203;-71
2022/08/16 03:16:38;;;;;;;16.93;13.87;;;21.00;99.90;;;;;;4899496;29;20232;-71
2022/08/16 03:19:25;;;;;;;20.37;14.47;;;21.00;99.90;;;;;;4885103;29;20192;-71
2022/08/16 03:22:12;;;;;;;29.60;16.27;;;21.00;99.90;;;;;;4898290;29;20219;-71
2022/08/16 03:25:00;;;;;;;38.87;19.27;;;21.00;99.90;;;;;;4898246;29;20673;-71
2022/08/16 03:27:29;;;;;;;26.67;17.53;;;20.90;99.90;;;;;;4898114;29;20220;-72
2022/08/16 03:30:13;;;;;;;26.23;19.53;;;20.90;99.90;;;;;;4899522;29;20235;-72
2022/08/16 03:32:45;;;;;;;28.53;20.50;;;20.90;99.90;;;;;;4898356;29;20208;-72
2022/08/16 03:35:14;;;;;;;32.73;20.20;;;20.90;99.90;;;;;;4898491;29;20196;-72
2022/08/16 03:37:44;;;;;;;35.47;19.20;;;20.90;99.90;;;;;;4898103;29;20279;-72
2022/08/16 03:40:32;;;;;;;23.20;17.77;;;20.90;99.90;;;;;;4898183;29;20299;-72
2022/08/16 03:43:02;;;;;;;31.07;17.33;;;20.90;99.90;;;;;;4898985;29;20228;-73
2022/08/16 03:45:48;;;;;;;26.00;17.90;;;20.90;99.90;;;;;;4899192;29;20219;-71
2022/08/16 03:48:22;;;;;;;26.07;16.97;;;20.90;99.90;;;;;;4897894;29;20236;-72
2022/08/16 03:51:07;;;;;;;23.57;16.30;;;20.90;99.90;;;;;;4884069;29;20219;-71
2022/08/16 03:53:36;;;;;;;29.13;16.47;;;20.90;99.90;;;;;;4882104;29;20289;-71
2022/08/16 03:56:06;;;;;;;18.57;14.80;;;20.90;99.90;;;;;;4897849;29;20298;-76
2022/08/16 03:58:45;;;;;;;20.70;14.83;;;20.90;99.90;;;;;;4897915;29;20226;-72
2022/08/16 04:01:14;;;;;;;17.83;14.30;;;20.90;99.90;;;;;;4897781;29;20212;-73
2022/08/16 04:03:42;;;;;;;22.63;14.77;;;20.90;99.90;;;;;;4898110;29;20234;-76
2022/08/16 04:06:10;;;;;;;19.63;14.57;;;20.90;99.90;;;;;;4898967;29;20212;-72
2022/08/16 04:08:37;;;;;;;19.33;14.30;;;21.00;99.90;;;;;;4897714;29;20204;-72
2022/08/16 04:11:05;;;;;;;19.77;14.27;;;21.00;99.90;;;;;;4898975;29;20584;-71
2022/08/16 04:13:33;;;;;;;20.70;14.73;;;20.90;99.90;;;;;;4898791;29;20196;-74
2022/08/16 04:16:20;;;;;;;18.20;14.33;;;21.00;99.90;;;;;;4879287;29;20197;-72
2022/08/16 04:18:55;;;;;;;19.20;13.70;;;21.00;99.90;;;;;;4880730;29;20855;-71
2022/08/16 04:21:30;;;;;;;20.77;14.30;;;21.00;99.90;;;;;;4881114;29;20614;-73
2022/08/16 04:23:58;;;;;;;18.73;13.50;;;21.10;99.90;;;;;;4880660;29;20228;-72
2022/08/16 04:26:25;;;;;;;20.30;13.43;;;21.10;99.90;;;;;;4879634;29;20204;-72
2022/08/16 04:29:03;;;;;;;18.23;13.77;;;21.10;99.90;;;;;;4878630;29;20224;-71
2022/08/16 04:31:52;;;;;;;21.77;14.23;;;21.10;99.90;;;;;;4891112;29;20232;-71
2022/08/16 04:34:26;;;;;;;21.30;13.97;;;21.20;99.90;;;;;;4878762;29;20236;-71
2022/08/16 04:36:54;;;;;;;18.60;13.97;;;21.20;99.90;;;;;;4896105;29;20247;-70
2022/08/16 04:39:23;;;;;;;19.67;14.00;;;21.20;99.90;;;;;;4896209;29;20204;-70
2022/08/16 04:42:04;;;;;;;20.40;14.37;;;21.20;99.90;;;;;;4878089;29;20204;-71
2022/08/16 04:44:37;;;;;;;22.63;14.67;;;21.30;99.90;;;;;;4878591;29;20205;-71
2022/08/16 04:47:28;;;;;;;19.73;14.10;;;21.30;99.90;;;;;;4878073;29;20227;-71
2022/08/16 04:50:31;;;;;;;18.67;13.30;;;21.30;99.90;;;;;;4878321;29;20205;-71
2022/08/16 04:52:58;;;;;;;19.83;13.93;;;21.40;99.90;;;;;;4811680;29;20238;-72
2022/08/16 04:55:27;;;;;;;17.60;13.60;;;21.40;99.90;;;;;;4825009;29;20336;-72
2022/08/16 04:58:04;;;;;;;35.70;15.63;;;21.50;99.90;;;;;;4825058;29;20214;-71
2022/08/16 05:00:51;;;;;;;21.87;13.70;;;21.50;99.90;;;;;;4840087;29;20194;-75
2022/08/16 05:03:19;;;;;;;23.00;14.37;;;21.50;99.90;;;;;;4824656;29;20214;-70
2022/08/16 05:05:47;;;;;;;18.40;13.80;;;21.60;99.90;;;;;;4824989;29;20209;-73
2022/08/16 05:08:28;;;;;;;18.13;13.80;;;21.60;99.90;;;;;;4824173;29;20206;-73
2022/08/16 05:11:02;;;;;;;18.30;13.40;;;21.70;99.90;;;;;;4838641;29;20270;-71
2022/08/16 05:13:33;;;;;;;25.57;14.67;;;21.80;99.90;;;;;;4824722;29;20206;-71
2022/08/16 05:16:16;;;;;;;26.80;14.30;;;21.80;99.90;;;;;;4824610;29;20266;-73
2022/08/16 05:18:52;;;;;;;19.50;14.10;;;21.80;99.90;;;;;;4840086;29;20209;-72
2022/08/16 05:21:23;;;;;;;19.43;13.33;;;21.90;99.90;;;;;;4824843;29;20206;-72
2022/08/16 05:23:53;;;;;;;25.13;14.07;;;22.00;99.90;;;;;;4824470;29;20250;-72
2022/08/16 05:26:26;;;;;;;20.90;13.40;;;21.90;99.90;;;;;;4824755;29;20293;-70
2022/08/16 05:28:58;;;;;;;18.77;13.23;;;22.00;99.90;;;;;;4849161;29;20238;-71
2022/08/16 05:31:29;;;;;;;53.67;18.47;;;22.00;99.90;;;;;;4914617;29;20690;-71
2022/08/16 05:34:01;;;;;;;30.10;14.37;;;22.00;99.90;;;;;;4915246;29;20255;-70
2022/08/16 05:36:30;;;;;;;21.60;13.93;;;22.10;99.90;;;;;;4915381;29;20570;-72
2022/08/16 05:39:07;;;;;;;26.80;14.53;;;22.10;99.90;;;;;;4914584;29;20204;-71
2022/08/16 05:41:36;;;;;;;21.40;14.10;;;22.20;99.90;;;;;;4915186;29;20200;-72
2022/08/16 05:44:15;;;;;;;16.60;12.80;;;22.20;99.90;;;;;;4915001;29;20235;-72
2022/08/16 05:46:55;;;;;;;17.17;12.73;;;22.20;99.90;;;;;;4930741;29;20203;-76
2022/08/16 05:49:24;;;;;;;19.63;13.63;;;22.20;99.90;;;;;;4914406;29;20266;-71
2022/08/16 05:52:04;;;;;;;42.30;14.93;;;22.20;99.90;;;;;;4914816;29;20275;-71
2022/08/16 05:54:39;;;;;;;16.87;12.70;;;22.20;99.90;;;;;;4896594;29;20288;-71
2022/08/16 05:57:14;;;;;;;24.20;13.40;;;22.30;99.90;;;;;;4895320;29;20203;-71
2022/08/16 05:59:41;;;;;;;17.60;13.17;;;22.30;99.90;;;;;;4897046;29;20294;-71
2022/08/16 06:02:08;;;;;;;18.27;13.10;;;22.40;99.90;;;;;;4904431;29;20196;-71
2022/08/16 06:04:35;;;;;;;20.70;13.43;;;22.40;99.90;;;;;;4905865;29;20200;-73
2022/08/16 06:07:08;;;;;;;17.67;13.17;;;22.40;99.90;;;;;;4904253;29;20607;-72
2022/08/16 06:09:54;;;;;;;22.47;13.73;;;22.40;99.90;;;;;;4902302;29;20191;-73
2022/08/16 06:12:21;;;;;;;20.10;13.57;;;22.50;99.90;;;;;;4905146;29;20225;-71
2022/08/16 06:15:01;;;;;;;19.07;13.47;;;22.60;99.90;;;;;;4905928;29;20227;-72
2022/08/16 06:17:34;;;;;;;16.83;13.37;;;22.70;99.90;;;;;;4903756;29;20207;-72
2022/08/16 06:20:24;;;;;;;21.00;13.77;;;22.70;99.90;;;;;;4901249;29;20258;-72
2022/08/16 06:23:03;;;;;;;19.37;13.83;;;22.80;99.90;;;;;;4899263;29;20204;-72
2022/08/16 06:25:43;;;;;;;19.97;12.77;;;22.90;99.90;;;;;;4930797;29;20204;-72
2022/08/16 06:28:19;;;;;;;23.20;13.83;;;22.90;99.90;;;;;;4899085;29;20230;-72
2022/08/16 06:31:01;;;;;;;18.27;12.67;;;23.00;99.90;;;;;;4898965;29;20230;-71
2022/08/16 06:33:31;;;;;;;17.77;13.47;;;23.00;99.90;;;;;;4899360;29;20243;-82
2022/08/16 06:36:08;;;;;;;25.70;13.87;;;23.10;99.90;;;;;;4899341;29;20199;-69
2022/08/16 06:38:37;;;;;;;15.83;12.50;;;23.20;99.90;;;;;;4899593;29;20568;-72
2022/08/16 06:41:21;;;;;;;34.13;15.20;;;23.30;99.90;;;;;;4898802;29;20673;-72
2022/08/16 06:43:50;;;;;;;31.40;14.50;;;23.40;99.90;;;;;;4898349;29;20288;-70
2022/08/16 06:46:27;;;;;;;31.00;14.53;;;23.50;99.90;;;;;;4898774;29;20646;-72
2022/08/16 06:48:59;;;;;;;28.27;14.87;;;23.60;99.90;;;;;;4898275;29;20250;-72
2022/08/16 06:51:27;;;;;;;19.73;12.93;;;23.60;99.90;;;;;;4894512;29;20220;-74
2022/08/16 06:54:14;;;;;;;18.37;12.97;;;23.70;99.90;;;;;;4895349;29;20275;-70
2022/08/16 06:56:41;;;;;;;22.20;13.77;;;23.80;99.90;;;;;;4907650;29;20275;-73
2022/08/16 06:59:09;;;;;;;24.10;13.40;;;23.90;99.90;;;;;;4899723;29;20204;-83
2022/08/16 07:01:36;;;;;;;22.73;13.05;;;24.10;99.90;;;;;;4897746;29;20211;-69
2022/08/16 07:04:12;;;;;;;18.05;13.30;;;24.20;99.90;;;;;;4896397;29;20204;-70
2022/08/16 07:06:59;;;;;;;18.83;13.17;;;24.40;99.90;;;;;;4897372;29;20204;-69
2022/08/16 07:09:26;;;;;;;21.65;12.68;;;24.60;99.90;;;;;;4898107;29;20208;-68
2022/08/16 07:11:57;;;;;;;17.27;12.93;;;24.60;99.90;;;;;;4905889;29;20224;-69
2022/08/16 07:14:32;;;;;;;16.75;12.88;;;24.80;99.90;;;;;;4904609;29;20629;-69
2022/08/16 07:17:01;;;;;;;16.73;12.55;;;25.00;99.90;;;;;;4907432;29;20587;-72
2022/08/16 07:19:32;;;;;;;17.33;12.50;;;25.10;99.90;;;;;;4905589;29;20203;-70
2022/08/16 07:22:19;;;;;;;14.88;12.48;;;25.20;99.90;;;;;;4896265;29;20216;-69
2022/08/16 07:25:12;;;;;;;14.27;12.25;;;25.30;99.90;;;;;;4898134;29;20215;-68
2022/08/16 07:27:40;;;;;;;23.02;13.38;;;25.30;99.90;;;;;;4898408;29;20326;-69
2022/08/16 07:30:12;;;;;;;23.55;13.35;;;25.30;99.90;;;;;;4897465;29;20212;-70
2022/08/16 07:32:59;;;;;;;23.10;14.07;;;25.30;99.90;;;;;;4897061;29;20667;-69
2022/08/16 07:35:26;;;;;;;20.40;12.73;;;25.30;99.90;;;;;;4901331;29;20570;-71
2022/08/16 07:37:53;;;;;;;23.42;13.60;;;25.40;99.90;;;;;;4893317;29;20667;-70
2022/08/16 07:40:21;;;;;;;16.00;12.55;;;25.40;99.90;;;;;;4884208;29;20196;-75
2022/08/16 07:43:08;;;;;;;19.70;12.90;;;25.40;99.90;;;;;;4898698;29;20597;-76
2022/08/16 07:45:35;;;;;;;18.85;13.43;;;25.40;99.90;;;;;;4903548;29;20196;-73
2022/08/16 07:48:03;;;;;;;17.92;12.80;;;25.40;99.90;;;;;;4901128;29;20291;-72
2022/08/16 07:50:38;;;;;;;17.38;13.50;;;25.50;99.90;;;;;;4894962;29;20733;-73
2022/08/16 07:53:23;;;;;;;16.02;13.23;;;25.60;99.90;;;;;;4897948;29;20234;-73
2022/08/16 07:55:55;;;;;;;18.75;12.90;;;25.70;99.90;;;;;;4896656;29;20200;-75
2022/08/16 07:58:22;;;;;;;21.20;13.18;;;25.70;99.90;;;;;;4887491;29;20204;-73
2022/08/16 08:01:04;;;;;;;22.25;12.77;;;25.80;99.90;;;;;;4890357;29;20244;-72
2022/08/16 08:03:40;;;;;;;20.70;12.85;;;26.00;99.90;;;;;;4899704;29;20565;-72
2022/08/16 08:06:21;;;;;;;40.85;14.48;;;26.20;99.90;;;;;;4902919;29;20559;-72
2022/08/16 08:09:04;;;;;;;31.67;14.32;;;26.30;99.90;;;;;;4895780;29;20200;-73
2022/08/16 08:11:39;;;;;;;23.92;13.15;;;26.60;99.90;;;;;;4894595;29;20224;-72
2022/08/16 08:14:34;;;;;;;16.27;11.80;;;27.20;99.90;;;;;;4855693;29;20259;-73
2022/08/16 08:17:04;;;;;;;15.75;11.35;;;27.90;99.90;;;;;;4899317;29;20227;-71
2022/08/16 08:19:34;;;;;;;13.48;11.43;;;28.10;99.90;;;;;;4904633;29;20234;-74
2022/08/16 08:22:03;;;;;;;28.73;12.60;;;28.10;99.90;;;;;;4912512;29;20211;-74
2022/08/16 08:24:33;;;;;;;13.07;10.70;;;28.10;99.90;;;;;;4896595;29;20591;-72
2022/08/16 08:27:03;;;;;;;16.40;12.32;;;28.60;99.90;;;;;;4898087;29;20212;-73
2022/08/16 08:29:31;;;;;;;16.95;10.90;;;28.70;99.90;;;;;;4896939;29;20255;-73
2022/08/16 08:32:07;;;;;;;16.88;11.65;;;28.90;99.90;;;;;;4898338;29;20227;-76
2022/08/16 08:34:57;;;;;;;14.90;10.98;;;29.30;99.90;;;;;;4897079;29;20300;-73
2022/08/16 08:37:29;;;;;;;14.88;11.10;;;29.30;99.90;;;;;;4897267;29;20298;-75
2022/08/16 08:40:17;;;;;;;19.60;11.32;;;29.20;99.90;;;;;;4896925;29;20200;-73
2022/08/16 08:42:51;;;;;;;14.45;10.80;;;29.00;99.90;;;;;;4896914;29;20295;-71
2022/08/16 08:45:27;;;;;;;24.00;12.75;;;28.90;99.90;;;;;;4896707;29;20214;-73
2022/08/16 08:48:16;;;;;;;21.70;11.57;;;29.20;99.90;;;;;;4897147;29;20208;-70
2022/08/16 08:51:00;;;;;;;16.33;11.57;;;29.20;99.90;;;;;;4897936;29;20192;-71
2022/08/16 08:53:28;;;;;;;15.05;11.23;;;29.30;99.90;;;;;;4895397;29;20231;-72
2022/08/16 08:55:57;;;;;;;23.95;11.82;;;29.20;99.90;;;;;;4897521;29;20212;-67
2022/08/16 08:58:26;;;;;;;17.02;11.68;;;29.50;99.90;;;;;;4897230;29;20200;-74
2022/08/16 09:01:01;;;;;;;18.98;11.27;;;29.50;99.90;;;;;;4894759;29;20315;-70
2022/08/16 09:03:38;;;;;;;15.90;11.10;;;29.50;99.90;;;;;;4898024;29;20649;-79
2022/08/16 09:06:07;;;;;;;17.52;11.98;;;29.50;99.90;;;;;;4897828;29;20199;-79
2022/08/16 09:08:35;;;;;;;16.23;11.63;;;29.50;99.90;;;;;;4877902;29;20208;-71
2022/08/16 09:11:02;;;;;;;17.48;12.07;;;29.40;99.90;;;;;;4900543;29;20295;-79
2022/08/16 09:13:33;;;;;;;13.70;11.60;;;29.30;99.90;;;;;;4901722;29;20700;-73
2022/08/16 09:16:00;;;;;;;18.63;11.68;;;29.10;99.90;;;;;;4904169;29;20283;-76
2022/08/16 09:18:29;;;;;;;23.60;12.60;;;29.00;99.90;;;;;;4900207;29;20227;-71
2022/08/16 09:21:05;;;;;;;16.25;12.07;;;28.80;99.90;;;;;;4884919;29;20204;-71
2022/08/16 09:23:36;;;;;;;16.55;11.85;;;28.70;99.90;;;;;;4887647;29;20323;-70
2022/08/16 09:26:09;;;;;;;14.88;11.80;;;28.50;99.90;;;;;;4916178;29;20215;-71
2022/08/16 09:28:56;;;;;;;16.38;12.60;;;28.40;99.90;;;;;;4904877;29;20227;-70
2022/08/16 09:31:42;;;;;;;15.93;11.90;;;28.30;99.90;;;;;;4902992;29;20326;-72
2022/08/16 09:34:10;;;;;;;15.40;11.98;;;28.20;99.90;;;;;;4895201;29;20209;-81
2022/08/16 09:36:45;;;;;;;14.13;11.45;;;28.20;99.90;;;;;;4894180;29;20653;-79
2022/08/16 09:39:13;;;;;;;14.77;11.75;;;28.20;99.90;;;;;;4898879;29;20672;-73
2022/08/16 09:41:50;;;;;;;16.67;11.52;;;28.20;99.90;;;;;;4900463;29;20689;-68
2022/08/16 09:44:24;;;;;;;27.55;13.25;;;28.20;99.90;;;;;;4900385;29;20192;-69
2022/08/16 09:47:12;;;;;;;13.60;10.98;;;28.20;99.90;;;;;;4908433;29;20593;-74
2022/08/16 09:49:39;;;;;;;17.40;10.52;;;28.30;99.90;;;;;;4888362;29;20195;-74
2022/08/16 09:52:07;;;;;;;14.57;10.43;;;28.30;99.90;;;;;;4896412;29;20228;-74
2022/08/16 09:54:36;;;;;;;13.80;10.65;;;28.30;99.90;;;;;;4896266;29;20235;-68
2022/08/16 09:57:03;;;;;;;17.38;10.90;;;28.30;99.90;;;;;;4915712;29;20251;-69
2022/08/16 09:59:30;;;;;;;13.90;10.55;;;28.30;99.90;;;;;;4900423;29;20673;-69
2022/08/16 10:02:07;;;;;;;19.50;10.60;;;28.30;99.90;;;;;;4896921;29;20227;-75
2022/08/16 10:04:56;;;;;;;16.52;10.52;;;28.40;99.90;;;;;;4898325;29;20193;-68
2022/08/16 10:07:26;;;;;;;15.18;10.75;;;28.30;99.90;;;;;;4903430;29;20247;-75
2022/08/16 10:10:14;;;;;;;16.50;11.35;;;28.20;99.90;;;;;;4901204;29;20290;-72
2022/08/16 10:13:11;;;;;;;15.10;10.27;;;28.30;99.90;;;;;;4905812;29;20268;-73
2022/08/16 10:15:42;;;;;;;17.20;10.88;;;28.30;99.90;;;;;;4903621;29;20259;-75
2022/08/16 10:18:21;;;;;;;14.20;11.20;;;28.30;99.90;;;;;;4906409;29;20210;-74
2022/08/16 10:21:08;;;;;;;16.05;11.25;;;28.20;99.90;;;;;;4907385;29;20200;-77
2022/08/16 10:23:35;;;;;;;16.70;12.00;;;28.30;99.90;;;;;;4908600;29;20566;-77
2022/08/16 10:26:03;;;;;;;17.90;12.27;;;28.20;99.90;;;;;;4903024;29;20550;-73
2022/08/16 10:28:50;;;;;;;15.77;11.80;;;28.20;99.90;;;;;;4903937;29;20224;-70
2022/08/16 10:31:19;;;;;;;16.73;12.18;;;28.20;99.90;;;;;;4907672;29;20720;-69
2022/08/16 10:34:06;;;;;;;15.05;10.93;;;28.10;99.90;;;;;;4900813;29;20197;-74
2022/08/16 10:36:53;;;;;;;14.65;11.65;;;28.10;99.90;;;;;;4901943;29;20200;-74
2022/08/16 10:39:20;;;;;;;14.57;11.25;;;28.10;99.90;;;;;;4900685;29;20228;-74
2022/08/16 10:41:50;;;;;;;18.85;11.98;;;28.20;99.90;;;;;;4900101;29;20654;-71
2022/08/16 10:44:16;;;;;;;16.95;11.35;;;28.20;99.90;;;;;;4905283;29;20196;-69
2022/08/16 10:46:44;;;;;;;15.18;10.95;;;28.30;99.90;;;;;;4906413;29;20192;-68
2022/08/16 10:49:12;;;;;;;17.83;10.80;;;28.40;99.90;;;;;;4904389;29;20576;-69
2022/08/16 10:51:43;;;;;;;13.00;10.73;;;28.50;99.90;;;;;;4899244;29;20208;-75
2022/08/16 10:54:29;;;;;;;12.70;9.48;;;28.50;99.90;;;;;;4901610;29;20239;-85
2022/08/16 10:57:01;;;;;;;13.00;9.32;;;28.60;99.90;;;;;;4905339;29;20195;-75
2022/08/16 10:59:32;;;;;;;10.68;9.32;;;28.50;99.90;;;;;;4900458;29;20662;-71
2022/08/16 11:02:19;;;;;;;13.23;9.35;;;28.60;99.90;;;;;;4901892;29;20193;-74
2022/08/16 11:05:10;;;;;;;13.35;8.80;;;28.60;99.90;;;;;;4900301;29;20662;-70
2022/08/16 11:07:43;;;;;;;11.02;9.15;;;28.50;99.90;;;;;;4907093;29;20224;-75
2022/08/16 11:10:24;;;;;;;12.15;9.35;;;28.60;99.90;;;;;;4905486;29;20200;-72
2022/08/16 11:13:20;;;;;;;12.63;9.88;;;28.70;99.90;;;;;;4902642;29;20228;-72
2022/08/16 11:16:08;;;;;;;13.30;9.98;;;28.70;99.90;;;;;;4905363;29;20195;-71
2022/08/16 11:18:53;;;;;;;16.88;10.93;;;28.60;99.90;;;;;;4901394;29;20207;-69
2022/08/16 11:21:38;;;;;;;14.15;10.82;;;28.60;99.90;;;;;;4897287;29;20215;-72
2022/08/16 11:24:25;;;;;;;15.57;10.82;;;28.60;99.90;;;;;;4900320;29;20215;-74
2022/08/16 11:27:15;;;;;;;15.35;11.00;;;28.40;99.90;;;;;;4901090;29;20231;-70
2022/08/16 11:29:53;;;;;;;15.20;10.95;;;28.40;99.90;;;;;;4898110;29;20278;-69
2022/08/16 11:32:24;;;;;;;14.52;10.27;;;28.40;99.90;;;;;;4882353;29;20322;-69
2022/08/16 11:35:00;;;;;;;16.13;10.77;;;28.40;99.90;;;;;;4883065;29;20303;-71
2022/08/16 11:37:44;;;;;;;14.10;10.25;;;28.30;99.90;;;;;;4898072;29;20208;-74
2022/08/16 11:40:42;;;;;;;15.52;10.48;;;28.10;99.90;;;;;;4890848;29;20204;-69
2022/08/16 11:43:12;;;;;;;20.48;11.13;;;28.00;99.90;;;;;;4897873;29;20552;-69
2022/08/16 11:45:44;;;;;;;16.33;10.45;;;28.00;99.90;;;;;;4895189;29;20203;-70
2022/08/16 11:48:22;;;;;;;15.50;10.82;;;28.00;99.90;;;;;;4900040;29;20203;-71
2022/08/16 11:50:49;;;;;;;15.02;10.32;;;28.20;99.90;;;;;;4904099;29;20196;-73
2022/08/16 11:53:17;;;;;;;13.43;10.57;;;28.30;99.90;;;;;;4921225;29;20286;-72
2022/08/16 11:55:44;;;;;;;14.77;10.65;;;28.30;99.90;;;;;;4942096;29;20194;-73
2022/08/16 11:58:16;;;;;;;16.63;10.60;;;28.40;99.90;;;;;;4906201;29;20303;-70
2022/08/16 12:01:10;;;;;;;15.02;10.45;;;28.60;99.90;;;;;;4937021;29;20226;-78
2022/08/16 12:03:42;;;;;;;11.55;9.85;;;28.70;99.90;;;;;;4866821;29;20214;-80
2022/08/16 12:06:21;;;;;;;14.57;11.13;;;28.80;99.90;;;;;;4863280;29;20272;-82
2022/08/16 12:09:34;;;;;;;19.45;11.75;;;28.80;99.90;;;;;;4858501;29;20246;-84
2022/08/16 12:17:17;;;;;;;18.38;11.48;;;28.70;99.90;;;;;;4842493;29;20655;-82
2022/08/16 12:20:35;;;;;;;15.40;10.95;;;28.70;99.90;;;;;;4756519;30;20318;-80
2022/08/16 12:23:51;;;;;;;18.75;11.23;;;28.60;99.90;;;;;;4773758;30;20310;-81
2022/08/16 12:26:30;;;;;;;13.85;10.77;;;28.60;99.90;;;;;;4767521;30;20204;-82
2022/08/16 12:33:17;;;;;;;23.38;11.70;;;28.50;99.90;;;;;;4784176;30;20254;-83
2022/08/16 12:36:04;;;;;;;13.25;11.27;;;28.50;99.90;;;;;;4767493;30;20714;-82
2022/08/16 12:39:43;;;;;;;13.77;11.35;;;28.30;99.90;;;;;;4784796;29;20253;-84
2022/08/16 12:42:36;;;;;;;15.70;12.20;;;28.20;99.90;;;;;;4773647;29;20239;-78
2022/08/16 12:49:50;;;;;;;16.80;12.10;;;28.10;99.90;;;;;;4713442;30;20214;-82
2022/08/16 12:55:32;;;;;;;14.73;11.85;;;28.30;99.90;;;;;;4665587;30;20273;-78
2022/08/16 12:59:09;;;;;;;17.20;11.85;;;28.40;99.90;;;;;;4694167;30;20273;-87
2022/08/16 13:15:15;;;;;;;;;;;;;;;;;;;;;
2022/08/16 13:18:36;;;;;;;13.30;7.78;;;32.20;99.90;;;;;;4711227;30;20201;-83
2022/08/16 13:26:07;;;;;;;9.02;6.68;;;32.90;99.90;;;;;;4831343;29;20238;-83
2022/08/16 13:29:34;;;;;;;8.15;6.60;;;33.10;99.90;;;;;;4836858;29;20320;-81
2022/08/16 13:32:42;;;;;;;10.45;5.95;;;33.00;99.90;;;;;;4822856;29;20618;-87
2022/08/16 13:35:26;;;;;;;8.40;5.80;;;32.60;99.90;;;;;;4792583;29;20211;-83
2022/08/16 13:50:52;;;;;;;10.77;7.22;;;32.20;99.90;;;;;;4667395;30;20250;-82
2022/08/16 13:58:53;;;;;;;10.15;6.57;;;32.50;99.90;;;;;;4699144;30;20772;-84
2022/08/16 14:02:16;;;;;;;9.82;7.03;;;33.00;99.90;;;;;;4684268;30;20329;-79
2022/08/16 14:08:43;;;;;;;9.90;6.93;;;33.20;99.90;;;;;;4710479;30;20247;-77
2022/08/16 14:15:58;;;;;;;12.38;7.57;;;32.70;99.90;;;;;;4698723;30;20223;-78
2022/08/16 14:18:27;;;;;;;15.10;8.13;;;32.20;99.90;;;;;;4665517;30;20283;-82